sensor_id;sensor_type;location;lat;lon;timestamp;pressure;altitude;pressure_sealevel;temperature;humidity
12247;BME280;6186;52.022;4.692;2022-08-01T00:00:17;101760.13;;;20.37;100.00
12247;BME280;6186;52.022;4.692;2022-08-01T00:02:43;101770.81;;;20.37;100.00
12247;BME280;6186;52.022;4.692;2022-08-01T00:05:09;101766.56;;;20.33;100.00
12247;BME280;6186;52.022;4.692;2022-08-01T00:07:35;101758.50;;;20.34;100.00
12247;BME280;6186;52.022;4.692;2022-08-01T00:10:06;101765.56;;;20.35;100.00
12247;BME280;6186;52.022;4.692;2022-08-01T00:12:32;101764.59;;;20.36;100.00
12247;BME280;6186;52.022;4.692;2022-08-01T00:14:57;101771.78;;;20.36;100.00
12247;BME280;6186;52.022;4.692;2022-08-01T00:17:22;101767.34;;;20.35;100.00
12247;BME280;6186;52.022;4.692;2022-08-01T00:19:47;101768.41;;;20.32;100.00
12247;BME280;6186;52.022;4.692;2022-08-01T00:22:13;101771.88;;;20.34;100.00
12247;BME280;6186;52.022;4.692;2022-08-01T00:24:38;101770.91;;;20.35;100.00
12247;BME280;6186;52.022;4.692;2022-08-01T00:27:03;101776.16;;;20.37;100.00
12247;BME280;6186;52.022;4.692;2022-08-01T00:29:29;101779.72;;;20.37;100.00
12247;BME280;6186;52.022;4.692;2022-08-01T00:31:54;101782.41;;;20.37;100.00
12247;BME280;6186;52.022;4.692;2022-08-01T00:34:19;101777.91;;;20.38;100.00
12247;BME280;6186;52.022;4.692;2022-08-01T00:36:45;101777.13;;;20.36;100.00
12247;BME280;6186;52.022;4.692;2022-08-01T00:39:11;101778.84;;;20.37;100.00
12247;BME280;6186;52.022;4.692;2022-08-01T00:41:37;101780.66;;;20.36;100.00
12247;BME280;6186;52.022;4.692;2022-08-01T00:44:04;101769.19;;;20.34;100.00
12247;BME280;6186;52.022;4.692;2022-08-01T00:46:29;101779.88;;;20.34;100.00
12247;BME280;6186;52.022;4.692;2022-08-01T00:48:58;101778.13;;;20.33;100.00
12247;BME280;6186;52.022;4.692;2022-08-01T00:51:24;101771.06;;;20.32;100.00
12247;BME280;6186;52.022;4.692;2022-08-01T00:53:50;101765.72;;;20.32;100.00
12247;BME280;6186;52.022;4.692;2022-08-01T00:56:17;101775.47;;;20.33;100.00
12247;BME280;6186;52.022;4.692;2022-08-01T00:58:42;101771.06;;;20.32;100.00
12247;BME280;6186;52.022;4.692;2022-08-01T01:01:09;101766.03;;;20.26;100.00
12247;BME280;6186;52.022;4.692;2022-08-01T01:03:34;101771.22;;;20.29;100.00
12247;BME280;6186;52.022;4.692;2022-08-01T01:06:30;101770.28;;;20.30;100.00
12247;BME280;6186;52.022;4.692;2022-08-01T01:12:02;101764.22;;;20.27;100.00
12247;BME280;6186;52.022;4.692;2022-08-01T01:14:33;101766.03;;;20.26;100.00
12247;BME280;6186;52.022;4.692;2022-08-01T01:17:02;101762.47;;;20.26;100.00
12247;BME280;6186;52.022;4.692;2022-08-01T01:19:30;101766.91;;;20.27;100.00
12247;BME280;6186;52.022;4.692;2022-08-01T01:22:14;101762.41;;;20.27;100.00
12247;BME280;6186;52.022;4.692;2022-08-01T01:25:08;101770.41;;;20.27;100.00
12247;BME280;6186;52.022;4.692;2022-08-01T01:30:18;101763.44;;;20.25;100.00
12247;BME280;6186;52.022;4.692;2022-08-01T01:32:49;101760.13;;;20.20;100.00
12247;BME280;6186;52.022;4.692;2022-08-01T01:35:31;101766.34;;;20.20;100.00
12247;BME280;6186;52.022;4.692;2022-08-01T01:38:05;101769.94;;;20.19;100.00
12247;BME280;6186;52.022;4.692;2022-08-01T01:40:33;101763.78;;;20.17;100.00
12247;BME280;6186;52.022;4.692;2022-08-01T01:42:59;101778.03;;;20.18;100.00
12247;BME280;6186;52.022;4.692;2022-08-01T01:45:25;101775.41;;;20.16;100.00
12247;BME280;6186;52.022;4.692;2022-08-01T01:47:52;101778.16;;;20.15;100.00
12247;BME280;6186;52.022;4.692;2022-08-01T01:50:23;101784.53;;;20.12;100.00
12247;BME280;6186;52.022;4.692;2022-08-01T01:52:49;101771.41;;;20.08;100.00
12247;BME280;6186;52.022;4.692;2022-08-01T01:55:18;101774.91;;;20.08;100.00
12247;BME280;6186;52.022;4.692;2022-08-01T01:57:45;101780.34;;;20.07;100.00
12247;BME280;6186;52.022;4.692;2022-08-01T02:00:12;101782.03;;;20.09;100.00
12247;BME280;6186;52.022;4.692;2022-08-01T02:02:40;101778.56;;;20.07;100.00
12247;BME280;6186;52.022;4.692;2022-08-01T02:05:09;101782.94;;;20.08;100.00
12247;BME280;6186;52.022;4.692;2022-08-01T02:07:36;101778.47;;;20.09;100.00
12247;BME280;6186;52.022;4.692;2022-08-01T02:10:06;101771.47;;;20.06;100.00
12247;BME280;6186;52.022;4.692;2022-08-01T02:12:35;101771.47;;;20.06;100.00
12247;BME280;6186;52.022;4.692;2022-08-01T02:15:02;101771.53;;;20.05;100.00
12247;BME280;6186;52.022;4.692;2022-08-01T02:17:29;101776.00;;;20.04;100.00
12247;BME280;6186;52.022;4.692;2022-08-01T02:19:55;101779.63;;;20.03;100.00
12247;BME280;6186;52.022;4.692;2022-08-01T02:22:27;101779.63;;;20.03;100.00
12247;BME280;6186;52.022;4.692;2022-08-01T02:25:03;101775.25;;;20.02;100.00
12247;BME280;6186;52.022;4.692;2022-08-01T02:30:13;101786.00;;;20.01;100.00
12247;BME280;6186;52.022;4.692;2022-08-01T02:32:43;101769.31;;;19.96;100.00
12247;BME280;6186;52.022;4.692;2022-08-01T02:35:17;101773.78;;;19.95;100.00
12247;BME280;6186;52.022;4.692;2022-08-01T02:37:44;101772.78;;;19.98;100.00
12247;BME280;6186;52.022;4.692;2022-08-01T02:40:12;101781.81;;;19.95;100.00
12247;BME280;6186;52.022;4.692;2022-08-01T02:42:38;101776.47;;;19.95;100.00
12247;BME280;6186;52.022;4.692;2022-08-01T02:45:08;101780.03;;;19.96;100.00
12247;BME280;6186;52.022;4.692;2022-08-01T02:47:37;101784.41;;;19.97;100.00
12247;BME280;6186;52.022;4.692;2022-08-01T02:50:04;101783.69;;;19.93;100.00
12247;BME280;6186;52.022;4.692;2022-08-01T02:52:31;101777.72;;;19.88;100.00
12247;BME280;6186;52.022;4.692;2022-08-01T02:54:59;101785.56;;;19.91;100.00
12247;BME280;6186;52.022;4.692;2022-08-01T02:57:27;101790.91;;;19.91;100.00
12247;BME280;6186;52.022;4.692;2022-08-01T02:59:54;101780.41;;;19.88;100.00
12247;BME280;6186;52.022;4.692;2022-08-01T03:02:22;101782.19;;;19.88;100.00
12247;BME280;6186;52.022;4.692;2022-08-01T03:04:49;101775.22;;;19.85;100.00
12247;BME280;6186;52.022;4.692;2022-08-01T03:07:17;101773.47;;;19.84;100.00
12247;BME280;6186;52.022;4.692;2022-08-01T03:09:45;101779.09;;;19.78;100.00
12247;BME280;6186;52.022;4.692;2022-08-01T03:12:14;101786.28;;;19.78;100.00
12247;BME280;6186;52.022;4.692;2022-08-01T03:14:43;101780.50;;;19.68;100.00
12247;BME280;6186;52.022;4.692;2022-08-01T03:17:09;101784.97;;;19.67;100.00
12247;BME280;6186;52.022;4.692;2022-08-01T03:19:36;101786.94;;;19.64;100.00
12247;BME280;6186;52.022;4.692;2022-08-01T03:22:06;101801.06;;;19.66;100.00
12247;BME280;6186;52.022;4.692;2022-08-01T03:24:34;101793.34;;;19.60;100.00
12247;BME280;6186;52.022;4.692;2022-08-01T03:27:02;101796.81;;;19.62;100.00
12247;BME280;6186;52.022;4.692;2022-08-01T03:29:29;101789.00;;;19.57;100.00
12247;BME280;6186;52.022;4.692;2022-08-01T03:31:57;101790.78;;;19.57;100.00
12247;BME280;6186;52.022;4.692;2022-08-01T03:34:23;101801.34;;;19.60;100.00
12247;BME280;6186;52.022;4.692;2022-08-01T03:37:23;101799.59;;;19.59;100.00
12247;BME280;6186;52.022;4.692;2022-08-01T03:39:55;101808.56;;;19.58;100.00
12247;BME280;6186;52.022;4.692;2022-08-01T03:42:28;101805.81;;;19.59;100.00
12247;BME280;6186;52.022;4.692;2022-08-01T03:44:59;101806.69;;;19.60;100.00
12247;BME280;6186;52.022;4.692;2022-08-01T03:47:31;101801.34;;;19.60;100.00
12247;BME280;6186;52.022;4.692;2022-08-01T03:49:59;101799.56;;;19.60;100.00
12247;BME280;6186;52.022;4.692;2022-08-01T03:52:27;101802.22;;;19.60;100.00
12247;BME280;6186;52.022;4.692;2022-08-01T03:54:55;101799.56;;;19.60;100.00
12247;BME280;6186;52.022;4.692;2022-08-01T03:57:23;101799.47;;;19.62;100.00
12247;BME280;6186;52.022;4.692;2022-08-01T03:59:49;101795.94;;;19.61;100.00
12247;BME280;6186;52.022;4.692;2022-08-01T04:02:15;101797.72;;;19.61;100.00
12247;BME280;6186;52.022;4.692;2022-08-01T04:04:42;101795.06;;;19.61;100.00
12247;BME280;6186;52.022;4.692;2022-08-01T04:07:29;101802.06;;;19.63;100.00
12247;BME280;6186;52.022;4.692;2022-08-01T04:09:55;101795.06;;;19.61;100.00
12247;BME280;6186;52.022;4.692;2022-08-01T04:12:20;101793.25;;;19.61;100.00
12247;BME280;6186;52.022;4.692;2022-08-01T04:14:46;101799.47;;;19.62;100.00
12247;BME280;6186;52.022;4.692;2022-08-01T04:17:12;101789.78;;;19.59;100.00
12247;BME280;6186;52.022;4.692;2022-08-01T04:19:41;101789.78;;;19.59;100.00
12247;BME280;6186;52.022;4.692;2022-08-01T04:22:08;101798.81;;;19.57;100.00
12247;BME280;6186;52.022;4.692;2022-08-01T04:24:36;101796.38;;;19.52;100.00
12247;BME280;6186;52.022;4.692;2022-08-01T04:27:07;101806.34;;;19.49;100.00
12247;BME280;6186;52.022;4.692;2022-08-01T04:29:36;101786.50;;;19.36;100.00
12247;BME280;6186;52.022;4.692;2022-08-01T04:32:02;101808.41;;;19.42;100.00
12247;BME280;6186;52.022;4.692;2022-08-01T04:34:30;101811.16;;;19.41;100.00
12247;BME280;6186;52.022;4.692;2022-08-01T04:36:57;101805.97;;;19.38;100.00
12247;BME280;6186;52.022;4.692;2022-08-01T04:39:24;101813.75;;;19.42;100.00
12247;BME280;6186;52.022;4.692;2022-08-01T04:41:57;101812.88;;;19.42;100.00
12247;BME280;6186;52.022;4.692;2022-08-01T04:44:24;101811.16;;;19.41;100.00
12247;BME280;6186;52.022;4.692;2022-08-01T04:46:50;101822.66;;;19.43;100.00
12247;BME280;6186;52.022;4.692;2022-08-01T04:49:19;101823.56;;;19.42;100.00
12247;BME280;6186;52.022;4.692;2022-08-01T04:51:52;101819.81;;;19.46;100.00
12247;BME280;6186;52.022;4.692;2022-08-01T04:54:26;101823.28;;;19.48;100.00
12247;BME280;6186;52.022;4.692;2022-08-01T04:56:53;101826.75;;;19.50;100.00
12247;BME280;6186;52.022;4.692;2022-08-01T04:59:21;101821.28;;;19.53;100.00
12247;BME280;6186;52.022;4.692;2022-08-01T05:02:04;101831.81;;;19.56;100.00
12247;BME280;6186;52.022;4.692;2022-08-01T05:04:30;101824.59;;;19.58;100.00
12247;BME280;6186;52.022;4.692;2022-08-01T05:06:55;101820.19;;;19.57;100.00
12247;BME280;6186;52.022;4.692;2022-08-01T05:09:20;101824.41;;;19.62;100.00
12247;BME280;6186;52.022;4.692;2022-08-01T05:11:46;101829.66;;;19.64;100.00
12247;BME280;6186;52.022;4.692;2022-08-01T05:14:11;101831.38;;;19.65;100.00
12247;BME280;6186;52.022;4.692;2022-08-01T05:16:36;101829.50;;;19.67;100.00
12247;BME280;6186;52.022;4.692;2022-08-01T05:19:01;101831.19;;;19.69;100.00
12247;BME280;6186;52.022;4.692;2022-08-01T05:21:27;101830.31;;;19.69;100.00
12247;BME280;6186;52.022;4.692;2022-08-01T05:23:52;101828.44;;;19.71;100.00
12247;BME280;6186;52.022;4.692;2022-08-01T05:26:18;101828.44;;;19.71;100.00
12247;BME280;6186;52.022;4.692;2022-08-01T05:28:43;101829.06;;;19.76;100.00
12247;BME280;6186;52.022;4.692;2022-08-01T05:31:08;101834.41;;;19.76;100.00
12247;BME280;6186;52.022;4.692;2022-08-01T05:33:34;101835.38;;;19.75;100.00
12247;BME280;6186;52.022;4.692;2022-08-01T05:35:59;101833.41;;;19.79;100.00
12247;BME280;6186;52.022;4.692;2022-08-01T05:38:25;101828.16;;;19.77;100.00
12247;BME280;6186;52.022;4.692;2022-08-01T05:40:50;101833.34;;;19.80;100.00
12247;BME280;6186;52.022;4.692;2022-08-01T05:43:16;101845.78;;;19.81;100.00
12247;BME280;6186;52.022;4.692;2022-08-01T05:45:41;101846.56;;;19.83;100.00
12247;BME280;6186;52.022;4.692;2022-08-01T05:48:06;101842.00;;;19.85;100.00
12247;BME280;6186;52.022;4.692;2022-08-01T05:50:34;101848.13;;;19.87;100.00
12247;BME280;6186;52.022;4.692;2022-08-01T05:53:03;101849.88;;;19.88;100.00
12247;BME280;6186;52.022;4.692;2022-08-01T05:55:28;101847.38;;;19.85;100.00
12247;BME280;6186;52.022;4.692;2022-08-01T05:57:53;101852.72;;;19.85;100.00
12247;BME280;6186;52.022;4.692;2022-08-01T06:00:19;101856.38;;;19.83;100.00
12247;BME280;6186;52.022;4.692;2022-08-01T06:02:44;101849.44;;;19.79;100.00
12247;BME280;6186;52.022;4.692;2022-08-01T06:05:10;101853.44;;;19.70;100.00
12247;BME280;6186;52.022;4.692;2022-08-01T06:07:35;101855.31;;;19.68;100.00
12247;BME280;6186;52.022;4.692;2022-08-01T06:10:01;101854.50;;;19.66;100.00
12247;BME280;6186;52.022;4.692;2022-08-01T06:12:26;101856.38;;;19.64;100.00
12247;BME280;6186;52.022;4.692;2022-08-01T06:14:51;101857.22;;;19.64;100.00
12247;BME280;6186;52.022;4.692;2022-08-01T06:17:17;101865.25;;;19.64;100.00
12247;BME280;6186;52.022;4.692;2022-08-01T06:19:42;101860.78;;;19.65;100.00
12247;BME280;6186;52.022;4.692;2022-08-01T06:22:07;101869.66;;;19.65;100.00
12247;BME280;6186;52.022;4.692;2022-08-01T06:24:32;101868.72;;;19.66;100.00
12247;BME280;6186;52.022;4.692;2022-08-01T06:26:58;101872.13;;;19.70;100.00
12247;BME280;6186;52.022;4.692;2022-08-01T06:29:23;101863.09;;;19.73;100.00
12247;BME280;6186;52.022;4.692;2022-08-01T06:31:49;101862.88;;;19.77;100.00
12247;BME280;6186;52.022;4.692;2022-08-01T06:34:14;101866.34;;;19.79;100.00
12247;BME280;6186;52.022;4.692;2022-08-01T06:36:40;101874.28;;;19.81;100.00
12247;BME280;6186;52.022;4.692;2022-08-01T06:39:05;101873.28;;;19.83;100.00
12247;BME280;6186;52.022;4.692;2022-08-01T06:41:31;101881.06;;;19.88;100.00
12247;BME280;6186;52.022;4.692;2022-08-01T06:43:56;101875.59;;;19.91;100.00
12247;BME280;6186;52.022;4.692;2022-08-01T06:46:21;101882.53;;;19.95;100.00
12247;BME280;6186;52.022;4.692;2022-08-01T06:48:46;101881.50;;;19.97;100.00
12247;BME280;6186;52.022;4.692;2022-08-01T06:51:12;101873.47;;;19.97;100.00
12247;BME280;6186;52.022;4.692;2022-08-01T06:53:41;101874.44;;;19.96;100.00
12247;BME280;6186;52.022;4.692;2022-08-01T06:56:07;101880.72;;;19.95;100.00
12247;BME280;6186;52.022;4.692;2022-08-01T06:58:34;101884.19;;;19.97;100.00
12247;BME280;6186;52.022;4.692;2022-08-01T07:01:00;101879.19;;;19.90;100.00
12247;BME280;6186;52.022;4.692;2022-08-01T07:03:25;101883.03;;;19.84;100.00
12247;BME280;6186;52.022;4.692;2022-08-01T07:05:51;101889.44;;;19.80;100.00
12247;BME280;6186;52.022;4.692;2022-08-01T07:08:16;101893.06;;;19.79;100.00
12247;BME280;6186;52.022;4.692;2022-08-01T07:10:41;101898.50;;;19.78;100.00
12247;BME280;6186;52.022;4.692;2022-08-01T07:13:08;101906.72;;;19.73;100.00
12247;BME280;6186;52.022;4.692;2022-08-01T07:15:33;101911.19;;;19.73;100.00
12247;BME280;6186;52.022;4.692;2022-08-01T07:17:58;101904.19;;;19.70;100.00
12247;BME280;6186;52.022;4.692;2022-08-01T07:20:26;101909.59;;;19.68;100.00
12247;BME280;6186;52.022;4.692;2022-08-01T07:22:51;101908.75;;;19.68;100.00
12247;BME280;6186;52.022;4.692;2022-08-01T07:25:17;101908.94;;;19.63;100.00
12247;BME280;6186;52.022;4.692;2022-08-01T07:27:42;101910.88;;;19.60;100.00
12247;BME280;6186;52.022;4.692;2022-08-01T07:30:08;101918.09;;;19.58;100.00
12247;BME280;6186;52.022;4.692;2022-08-01T07:32:34;101914.44;;;19.60;100.00
12247;BME280;6186;52.022;4.692;2022-08-01T07:35:00;101925.13;;;19.60;100.00
12247;BME280;6186;52.022;4.692;2022-08-01T07:37:25;101927.72;;;19.62;100.00
12247;BME280;6186;52.022;4.692;2022-08-01T07:39:51;101925.91;;;19.62;100.00
12247;BME280;6186;52.022;4.692;2022-08-01T07:42:16;101927.81;;;19.59;100.00
12247;BME280;6186;52.022;4.692;2022-08-01T07:44:41;101942.00;;;19.61;100.00
12247;BME280;6186;52.022;4.692;2022-08-01T07:47:07;101941.16;;;19.60;100.00
12247;BME280;6186;52.022;4.692;2022-08-01T07:49:33;101949.88;;;19.64;100.00
12247;BME280;6186;52.022;4.692;2022-08-01T07:51:58;101945.34;;;19.66;100.00
12247;BME280;6186;52.022;4.692;2022-08-01T07:54:23;101948.84;;;19.66;100.00
12247;BME280;6186;52.022;4.692;2022-08-01T07:56:50;101946.06;;;19.69;100.00
12247;BME280;6186;52.022;4.692;2022-08-01T07:59:15;101951.25;;;19.73;100.00
12247;BME280;6186;52.022;4.692;2022-08-01T08:01:41;101952.94;;;19.75;100.00
12247;BME280;6186;52.022;4.692;2022-08-01T08:04:06;101951.97;;;19.76;100.00
12247;BME280;6186;52.022;4.692;2022-08-01T08:06:32;101961.47;;;19.83;100.00
12247;BME280;6186;52.022;4.692;2022-08-01T08:08:57;101969.50;;;19.83;100.00
12247;BME280;6186;52.022;4.692;2022-08-01T08:11:22;101967.66;;;19.84;100.00
12247;BME280;6186;52.022;4.692;2022-08-01T08:13:48;101967.41;;;19.90;100.00
12247;BME280;6186;52.022;4.692;2022-08-01T08:16:13;101961.84;;;19.94;100.00
12247;BME280;6186;52.022;4.692;2022-08-01T08:18:39;101967.13;;;19.96;100.00
12247;BME280;6186;52.022;4.692;2022-08-01T08:21:04;101966.03;;;20.00;100.00
12247;BME280;6186;52.022;4.692;2022-08-01T08:23:29;101970.31;;;20.04;100.00
12247;BME280;6186;52.022;4.692;2022-08-01T08:26:13;101965.69;;;20.07;100.00
12247;BME280;6186;52.022;4.692;2022-08-01T08:28:38;101972.72;;;20.10;100.00
12247;BME280;6186;52.022;4.692;2022-08-01T08:31:04;101970.81;;;20.12;100.00
12247;BME280;6186;52.022;4.692;2022-08-01T08:33:29;101978.06;;;20.10;100.00
12247;BME280;6186;52.022;4.692;2022-08-01T08:35:54;101981.44;;;20.13;100.00
12247;BME280;6186;52.022;4.692;2022-08-01T08:38:20;101974.09;;;20.18;100.00
12247;BME280;6186;52.022;4.692;2022-08-01T08:40:45;101980.09;;;20.23;100.00
12247;BME280;6186;52.022;4.692;2022-08-01T08:43:11;101973.75;;;20.26;100.00
12247;BME280;6186;52.022;4.692;2022-08-01T08:45:37;101979.88;;;20.28;100.00
12247;BME280;6186;52.022;4.692;2022-08-01T08:48:05;101980.31;;;20.37;100.00
12247;BME280;6186;52.022;4.692;2022-08-01T08:50:31;101980.66;;;20.48;100.00
12247;BME280;6186;52.022;4.692;2022-08-01T08:53:00;101986.28;;;20.61;100.00
12247;BME280;6186;52.022;4.692;2022-08-01T08:55:26;101976.88;;;20.71;100.00
12247;BME280;6186;52.022;4.692;2022-08-01T08:57:53;101983.34;;;20.84;100.00
12247;BME280;6186;52.022;4.692;2022-08-01T09:00:19;101985.22;;;21.01;100.00
12247;BME280;6186;52.022;4.692;2022-08-01T09:02:46;101986.28;;;21.15;100.00
12247;BME280;6186;52.022;4.692;2022-08-01T09:05:12;101991.00;;;21.27;100.00
12247;BME280;6186;52.022;4.692;2022-08-01T09:07:38;101985.00;;;21.39;100.00
12247;BME280;6186;52.022;4.692;2022-08-01T09:10:04;101988.78;;;21.52;100.00
12247;BME280;6186;52.022;4.692;2022-08-01T09:12:29;101987.06;;;21.69;100.00
12247;BME280;6186;52.022;4.692;2022-08-01T09:14:55;101993.56;;;21.80;100.00
12247;BME280;6186;52.022;4.692;2022-08-01T09:17:20;101993.63;;;21.96;100.00
12247;BME280;6186;52.022;4.692;2022-08-01T09:19:52;101979.66;;;22.06;100.00
12247;BME280;6186;52.022;4.692;2022-08-01T09:22:19;101993.47;;;22.14;100.00
12247;BME280;6186;52.022;4.692;2022-08-01T09:25:03;102000.69;;;22.14;100.00
12247;BME280;6186;52.022;4.692;2022-08-01T09:27:29;101992.97;;;22.08;100.00
12247;BME280;6186;52.022;4.692;2022-08-01T09:30:10;101989.59;;;22.04;100.00
12247;BME280;6186;52.022;4.692;2022-08-01T09:32:36;101999.34;;;22.05;100.00
12247;BME280;6186;52.022;4.692;2022-08-01T09:35:27;102003.34;;;21.98;100.00
12247;BME280;6186;52.022;4.692;2022-08-01T09:38:20;102010.81;;;21.92;100.00
12247;BME280;6186;52.022;4.692;2022-08-01T09:43:13;102009.59;;;22.14;100.00
12247;BME280;6186;52.022;4.692;2022-08-01T09:45:39;102008.75;;;22.45;100.00
12247;BME280;6186;52.022;4.692;2022-08-01T09:48:08;102014.16;;;22.61;100.00
12247;BME280;6186;52.022;4.692;2022-08-01T09:50:41;102010.84;;;22.56;100.00
12247;BME280;6186;52.022;4.692;2022-08-01T09:53:08;102012.47;;;22.60;100.00
12247;BME280;6186;52.022;4.692;2022-08-01T09:55:34;102013.13;;;22.79;100.00
12247;BME280;6186;52.022;4.692;2022-08-01T09:57:59;102003.72;;;23.01;100.00
12247;BME280;6186;52.022;4.692;2022-08-01T10:00:26;102017.38;;;23.28;100.00
12247;BME280;6186;52.022;4.692;2022-08-01T10:02:51;102022.38;;;23.50;100.00
12247;BME280;6186;52.022;4.692;2022-08-01T10:05:17;102011.34;;;23.68;100.00
12247;BME280;6186;52.022;4.692;2022-08-01T10:07:59;102021.19;;;23.97;100.00
12247;BME280;6186;52.022;4.692;2022-08-01T10:10:25;102019.00;;;24.32;100.00
12247;BME280;6186;52.022;4.692;2022-08-01T10:12:51;102020.41;;;24.52;100.00
12247;BME280;6186;52.022;4.692;2022-08-01T10:15:17;102007.50;;;24.57;100.00
12247;BME280;6186;52.022;4.692;2022-08-01T10:18:04;102013.22;;;24.52;100.00
12247;BME280;6186;52.022;4.692;2022-08-01T10:20:32;102010.91;;;24.46;100.00
12247;BME280;6186;52.022;4.692;2022-08-01T10:23:03;102022.28;;;24.37;100.00
12247;BME280;6186;52.022;4.692;2022-08-01T10:25:34;102009.47;;;24.26;100.00
12247;BME280;6186;52.022;4.692;2022-08-01T10:28:01;102008.94;;;24.21;100.00
12247;BME280;6186;52.022;4.692;2022-08-01T10:30:31;102011.63;;;24.21;100.00
12247;BME280;6186;52.022;4.692;2022-08-01T10:32:57;102010.63;;;24.22;100.00
12247;BME280;6186;52.022;4.692;2022-08-01T10:35:22;102011.63;;;24.21;100.00
12247;BME280;6186;52.022;4.692;2022-08-01T10:37:47;102005.94;;;24.12;100.00
12247;BME280;6186;52.022;4.692;2022-08-01T10:40:15;102011.38;;;23.96;100.00
12247;BME280;6186;52.022;4.692;2022-08-01T10:42:42;102025.13;;;23.92;100.00
12247;BME280;6186;52.022;4.692;2022-08-01T10:45:09;102024.63;;;23.85;100.00
12247;BME280;6186;52.022;4.692;2022-08-01T10:50:24;102020.81;;;23.89;100.00
12247;BME280;6186;52.022;4.692;2022-08-01T10:53:18;102029.84;;;23.88;100.00
12247;BME280;6186;52.022;4.692;2022-08-01T10:56:04;102018.00;;;23.91;100.00
12247;BME280;6186;52.022;4.692;2022-08-01T10:58:37;102015.94;;;24.10;100.00
12247;BME280;6186;52.022;4.692;2022-08-01T11:01:22;102016.69;;;24.40;100.00
12247;BME280;6186;52.022;4.692;2022-08-01T11:04:13;102016.84;;;24.65;100.00
12247;BME280;6186;52.022;4.692;2022-08-01T11:09:28;102023.63;;;25.11;100.00
12247;BME280;6186;52.022;4.692;2022-08-01T11:11:57;102031.28;;;25.05;100.00
12247;BME280;6186;52.022;4.692;2022-08-01T11:14:23;102023.72;;;24.83;100.00
12247;BME280;6186;52.022;4.692;2022-08-01T11:16:49;102032.03;;;24.66;100.00
12247;BME280;6186;52.022;4.692;2022-08-01T11:19:14;102029.09;;;24.43;100.00
12247;BME280;6186;52.022;4.692;2022-08-01T11:29:41;102032.91;;;23.82;100.00
12247;BME280;6186;52.022;4.692;2022-08-01T11:32:26;102035.75;;;23.79;100.00
12247;BME280;6186;52.022;4.692;2022-08-01T11:34:55;102029.44;;;23.94;100.00
12247;BME280;6186;52.022;4.692;2022-08-01T11:37:28;102023.22;;;24.36;100.00
12247;BME280;6186;52.022;4.692;2022-08-01T11:40:19;102029.28;;;24.94;100.00
12247;BME280;6186;52.022;4.692;2022-08-01T11:42:46;102030.53;;;25.42;100.00
12247;BME280;6186;52.022;4.692;2022-08-01T11:45:12;102019.38;;;25.73;100.00
12247;BME280;6186;52.022;4.692;2022-08-01T11:47:48;102023.16;;;25.96;100.00
12247;BME280;6186;52.022;4.692;2022-08-01T11:50:29;102020.19;;;26.13;100.00
12247;BME280;6186;52.022;4.692;2022-08-01T11:53:04;102022.00;;;26.00;100.00
12247;BME280;6186;52.022;4.692;2022-08-01T11:55:31;102026.84;;;25.82;100.00
12247;BME280;6186;52.022;4.692;2022-08-01T11:58:01;102023.28;;;25.94;100.00
12247;BME280;6186;52.022;4.692;2022-08-01T12:00:27;102021.78;;;26.16;100.00
12247;BME280;6186;52.022;4.692;2022-08-01T12:03:04;102025.63;;;26.37;100.00
12247;BME280;6186;52.022;4.692;2022-08-01T12:05:31;102027.97;;;26.54;100.00
12247;BME280;6186;52.022;4.692;2022-08-01T12:07:59;102019.78;;;26.43;100.00
12247;BME280;6186;52.022;4.692;2022-08-01T12:10:27;102025.91;;;26.21;100.00
12247;BME280;6186;52.022;4.692;2022-08-01T12:13:00;102032.38;;;26.19;100.00
12247;BME280;6186;52.022;4.692;2022-08-01T12:15:30;102031.69;;;26.28;100.00
12247;BME280;6186;52.022;4.692;2022-08-01T12:17:58;102034.91;;;26.33;100.00
12247;BME280;6186;52.022;4.692;2022-08-01T12:20:24;102036.56;;;26.35;100.00
12247;BME280;6186;52.022;4.692;2022-08-01T12:22:54;102037.97;;;26.28;100.00
12247;BME280;6186;52.022;4.692;2022-08-01T12:25:20;102042.72;;;26.25;100.00
12247;BME280;6186;52.022;4.692;2022-08-01T12:27:47;102029.22;;;26.25;100.00
12247;BME280;6186;52.022;4.692;2022-08-01T12:30:15;102039.81;;;26.28;100.00
12247;BME280;6186;52.022;4.692;2022-08-01T12:32:42;102037.41;;;26.23;100.00
12247;BME280;6186;52.022;4.692;2022-08-01T12:35:09;102033.31;;;26.18;100.00
12247;BME280;6186;52.022;4.692;2022-08-01T12:37:37;102036.50;;;26.12;100.00
12247;BME280;6186;52.022;4.692;2022-08-01T12:40:10;102028.03;;;26.03;100.00
12247;BME280;6186;52.022;4.692;2022-08-01T12:42:40;102039.03;;;26.00;100.00
12247;BME280;6186;52.022;4.692;2022-08-01T12:45:08;102040.44;;;25.93;100.00
12247;BME280;6186;52.022;4.692;2022-08-01T12:47:36;102035.47;;;25.87;100.00
12247;BME280;6186;52.022;4.692;2022-08-01T12:50:03;102027.38;;;25.87;100.00
12247;BME280;6186;52.022;4.692;2022-08-01T12:52:31;102036.88;;;25.93;100.00
12247;BME280;6186;52.022;4.692;2022-08-01T12:55:01;102030.81;;;25.89;100.00
12247;BME280;6186;52.022;4.692;2022-08-01T12:57:26;102037.72;;;25.93;100.00
12247;BME280;6186;52.022;4.692;2022-08-01T13:00:10;102031.59;;;26.04;100.00
12247;BME280;6186;52.022;4.692;2022-08-01T13:02:36;102031.50;;;26.18;100.00
12247;BME280;6186;52.022;4.692;2022-08-01T13:05:03;102020.78;;;26.29;100.00
12247;BME280;6186;52.022;4.692;2022-08-01T13:07:58;102034.06;;;26.45;100.00
12247;BME280;6186;52.022;4.692;2022-08-01T13:10:28;102024.88;;;26.47;100.00
12247;BME280;6186;52.022;4.692;2022-08-01T13:12:58;102029.09;;;26.51;100.00
12247;BME280;6186;52.022;4.692;2022-08-01T13:15:25;102027.00;;;26.55;100.00
12247;BME280;6186;52.022;4.692;2022-08-01T13:17:53;102027.03;;;26.42;100.00
12247;BME280;6186;52.022;4.692;2022-08-01T13:20:23;102020.91;;;26.28;100.00